logo
Rechercher aéroport 
image banner adimage banner adimage banner ad
image banner ad

FAGIAN - Giants Castle

Situé à , South Africa

ICAO - , IATA -

Données fournies par Airmate  

Information générale

Coordonnées: S29°16'6" E29°40'30"
Élévation : 5213 feet MSL.
 
Voir autres Aéroports à Kwazulu-Natal

Données opérationnelles

Special qualification required
Heure actuelle UTC:
Heure actuelle locale:
Météo à : - ( 0 km )
METAR: KQFX 241910Z AUTO 10001KT 9999 CLR 17/15 A2978 RMK A02 TSNO
Voir NOTAMs / SUP AIP / TFR affectant cet aéroport [VIEW]
Fréquences de communication: [VIEW]

Pistes:

Identifiant RWYQFULongueur (ft)Largeur (ft)SurfaceLDA (ft)
0268°393733SAND
20248°393733SAND

Coordonnées de l'aéroport

Adresse: South Africa

Vue satellite de FAGIAN